createdAt,value
2018-06-19T00:00:25.233Z,98120.86
2018-06-19T00:02:58.410Z,98126.95
2018-06-19T00:05:32.275Z,98129.03
2018-06-19T00:08:04.618Z,98132.59
2018-06-19T00:10:38.472Z,98130.95
2018-06-19T00:13:10.810Z,98134.25
2018-06-19T00:15:43.629Z,98131.56
2018-06-19T00:18:33.473Z,98133.33
2018-06-19T00:21:10.178Z,98137.30
2018-06-19T00:23:43.006Z,98140.66
2018-06-19T00:26:15.818Z,98138.84
2018-06-19T00:28:49.986Z,98136.84
2018-06-19T00:31:22.724Z,98145.11
2018-06-19T00:33:55.605Z,98149.28
2018-06-19T00:36:28.992Z,98150.93
2018-06-19T00:39:01.091Z,98161.99
2018-06-19T00:41:33.739Z,98162.78
2018-06-19T00:44:06.448Z,98167.58
2018-06-19T00:46:40.328Z,98175.20
2018-06-19T00:49:13.409Z,98179.12
2018-06-19T00:51:46.175Z,98175.32
2018-06-19T00:54:18.960Z,98180.31
2018-06-19T00:57:00.614Z,98189.73
2018-06-19T00:59:33.682Z,98195.40
2018-06-19T01:02:06.501Z,98200.34
2018-06-19T01:04:39.042Z,98203.55
2018-06-19T01:07:11.984Z,98205.62
2018-06-19T01:09:44.652Z,98206.23
2018-06-19T01:12:17.236Z,98217.70
2018-06-19T01:14:49.719Z,98217.17
2018-06-19T01:17:22.812Z,98220.90
2018-06-19T01:19:55.889Z,98223.79
2018-06-19T01:22:28.457Z,98230.73
2018-06-19T01:25:00.932Z,98225.65
2018-06-19T01:27:34.459Z,98218.14
2018-06-19T01:30:06.705Z,98222.38
2018-06-19T01:32:39.867Z,98230.84
2018-06-19T01:35:11.954Z,98230.47
2018-06-19T01:37:45.113Z,98235.02
2018-06-19T01:40:17.589Z,98242.23
2018-06-19T01:42:49.769Z,98241.72
2018-06-19T01:45:23.016Z,98244.72
2018-06-19T01:47:56.295Z,98246.05
2018-06-19T01:50:28.673Z,98249.53
2018-06-19T01:53:01.927Z,98249.53
2018-06-19T01:55:35.236Z,98246.33
2018-06-19T01:58:07.806Z,98255.00
2018-06-19T02:00:39.601Z,98258.13
2018-06-19T02:03:12.579Z,98265.56
2018-06-19T02:05:45.997Z,98260.61
2018-06-19T02:08:18.611Z,98263.50
2018-06-19T02:10:51.305Z,98264.12
2018-06-19T02:13:24.632Z,98261.23
2018-06-19T02:15:57.200Z,98258.55
2018-06-19T02:18:29.313Z,98263.91
2018-06-19T02:21:01.410Z,98261.95
2018-06-19T02:23:33.614Z,98262.98
2018-06-19T02:26:06.587Z,98262.77
2018-06-19T02:28:40.211Z,98262.16
2018-06-19T02:31:12.917Z,98256.72
2018-06-19T02:33:45.575Z,98267.45
2018-06-19T02:36:18.369Z,98258.38
2018-06-19T02:38:50.513Z,98258.38
2018-06-19T02:41:23.457Z,98261.78
2018-06-19T02:43:55.991Z,98263.12
2018-06-19T02:46:29.617Z,98261.78
2018-06-19T02:49:03.049Z,98267.04
2018-06-19T02:51:35.563Z,98263.15
2018-06-19T02:54:08.223Z,98268.41
2018-06-19T02:56:41.127Z,98272.33
2018-06-19T02:59:13.941Z,98272.85
2018-06-19T03:01:47.191Z,98275.60
2018-06-19T03:04:20.377Z,98268.31
2018-06-19T03:06:53.191Z,98267.28
2018-06-19T03:09:26.164Z,98271.30
2018-06-19T03:11:58.668Z,98271.58
2018-06-19T03:14:31.341Z,98271.06
2018-06-19T03:17:04.259Z,98261.91
2018-06-19T03:19:36.860Z,98266.52
2018-06-19T03:22:08.773Z,98262.50
2018-06-19T03:24:42.092Z,98259.81
2018-06-19T03:27:15.042Z,98262.19
2018-06-19T03:29:47.593Z,98261.16
2018-06-19T03:32:19.754Z,98260.27
2018-06-19T03:34:52.644Z,98263.53
2018-06-19T03:37:24.895Z,98260.64
2018-06-19T03:39:58.063Z,98257.13
2018-06-19T03:42:31.115Z,98264.36
2018-06-19T03:45:03.451Z,98256.00
2018-06-19T03:47:36.601Z,98255.48
2018-06-19T03:50:10.000Z,98256.10
2018-06-19T03:52:42.381Z,98253.52
2018-06-19T03:55:15.192Z,98251.35
2018-06-19T03:57:47.534Z,98250.32
2018-06-19T04:00:20.246Z,98250.63
2018-06-19T04:02:52.381Z,98245.27
2018-06-19T04:05:25.408Z,98245.03
2018-06-19T04:07:57.713Z,98238.25
2018-06-19T04:10:30.810Z,98242.03
2018-06-19T04:13:03.997Z,98245.55
2018-06-19T04:15:37.069Z,98241.24
2018-06-19T04:18:09.969Z,98243.17
2018-06-19T04:20:42.197Z,98240.59
2018-06-19T04:23:13.890Z,98240.80
2018-06-19T04:25:46.612Z,98234.30
2018-06-19T04:28:19.372Z,98232.02
2018-06-19T04:30:51.622Z,98228.62
2018-06-19T04:33:23.874Z,98238.11
2018-06-19T04:35:56.078Z,98231.41
2018-06-19T04:38:28.992Z,98230.89
2018-06-19T04:41:02.031Z,98229.85
2018-06-19T04:43:36.127Z,98232.54
2018-06-19T04:46:09.243Z,98230.37
2018-06-19T04:48:42.063Z,98227.89
2018-06-19T04:51:14.882Z,98227.30
2018-06-19T04:53:47.802Z,98222.94
2018-06-19T04:56:20.332Z,98224.18
2018-06-19T04:58:52.901Z,98226.31
2018-06-19T05:01:25.779Z,98229.00
2018-06-19T05:03:58.108Z,98228.69
2018-06-19T05:06:31.428Z,98215.41
2018-06-19T05:09:03.719Z,98220.33
2018-06-19T05:11:36.768Z,98213.73
2018-06-19T05:14:09.319Z,98209.22
2018-06-19T05:16:42.780Z,98213.55
2018-06-19T05:19:14.844Z,98214.28
2018-06-19T05:21:47.959Z,98213.42
2018-06-19T05:24:20.308Z,98208.50
2018-06-19T05:26:52.385Z,98206.30
2018-06-19T05:29:25.388Z,98208.25
2018-06-19T05:31:58.065Z,98211.83
2018-06-19T05:34:31.173Z,98207.98
2018-06-19T05:37:03.825Z,98206.12
2018-06-19T05:39:37.157Z,98193.94
2018-06-19T05:42:10.399Z,98197.09
2018-06-19T05:44:43.085Z,98189.56
2018-06-19T05:47:15.205Z,98192.55
2018-06-19T05:49:47.758Z,98193.99
2018-06-19T05:52:20.505Z,98183.53
2018-06-19T05:54:53.090Z,98183.33
2018-06-19T05:57:26.612Z,98186.41
2018-06-19T05:59:59.039Z,98174.40
2018-06-19T06:02:32.339Z,98181.11
2018-06-19T06:05:04.408Z,98183.28
2018-06-19T06:07:36.703Z,98177.55
2018-06-19T06:10:09.409Z,98174.87
2018-06-19T06:12:42.197Z,98163.14
2018-06-19T06:15:17.124Z,98163.86
2018-06-19T06:17:50.008Z,98162.70
2018-06-19T06:20:23.143Z,98158.67
2018-06-19T06:22:56.482Z,98155.38
2018-06-19T06:25:28.792Z,98154.20
2018-06-19T06:28:02.150Z,98150.05
2018-06-19T06:30:34.457Z,98154.17
2018-06-19T06:33:07.804Z,98155.27
2018-06-19T06:35:40.001Z,98147.22
2018-06-19T06:38:13.865Z,98146.94
2018-06-19T06:40:46.908Z,98143.38
2018-06-19T06:43:22.142Z,98140.69
2018-06-19T06:45:55.015Z,98141.58
2018-06-19T06:48:28.012Z,98141.63
2018-06-19T06:51:00.581Z,98130.89
2018-06-19T06:53:33.628Z,98128.15
2018-06-19T06:56:06.977Z,98128.61
2018-06-19T06:58:43.557Z,98134.55
2018-06-19T07:01:16.427Z,98124.42
2018-06-19T07:03:49.559Z,98130.34
2018-06-19T07:06:23.051Z,98121.38
2018-06-19T07:08:55.323Z,98118.05
2018-06-19T07:11:29.409Z,98116.77
2018-06-19T07:14:02.158Z,98110.95
2018-06-19T07:16:39.388Z,98110.87
2018-06-19T07:19:11.599Z,98107.14
2018-06-19T07:21:44.634Z,98103.79
2018-06-19T07:24:16.878Z,98105.28
2018-06-19T07:26:49.606Z,98097.53
2018-06-19T07:29:22.017Z,98095.36
2018-06-19T07:31:54.964Z,98095.20
2018-06-19T07:34:27.721Z,98094.64
2018-06-19T07:37:02.216Z,98092.39
2018-06-19T07:39:35.219Z,98088.84
2018-06-19T07:42:08.624Z,98090.63
2018-06-19T07:44:42.469Z,98091.95
2018-06-19T07:47:15.322Z,98089.00
2018-06-19T07:49:48.467Z,98084.12
2018-06-19T07:52:22.599Z,98086.30
2018-06-19T07:54:57.040Z,98081.09
2018-06-19T07:57:29.831Z,98075.92
2018-06-19T08:00:10.049Z,98071.98
2018-06-19T08:02:44.558Z,98063.17
2018-06-19T08:05:20.025Z,98065.27
2018-06-19T08:07:52.185Z,98061.89
2018-06-19T08:10:26.238Z,98061.07
2018-06-19T08:12:59.530Z,98058.25
2018-06-19T08:15:33.254Z,98057.64
2018-06-19T08:18:07.750Z,98046.08
2018-06-19T08:20:41.090Z,98044.81
2018-06-19T08:23:13.468Z,98044.05
2018-06-19T08:25:46.345Z,98035.47
2018-06-19T08:28:20.466Z,98034.56
2018-06-19T08:30:56.798Z,98034.20
2018-06-19T08:33:29.835Z,98034.64
2018-06-19T08:36:03.584Z,98031.82
2018-06-19T08:38:36.280Z,98025.97
2018-06-19T08:41:10.278Z,98020.38
2018-06-19T08:43:44.151Z,98019.51
2018-06-19T08:46:19.322Z,98021.51
2018-06-19T08:48:52.568Z,98016.05
2018-06-19T08:51:25.039Z,98014.78
2018-06-19T08:53:59.563Z,98010.59
2018-06-19T08:56:31.801Z,98010.97
2018-06-19T08:59:04.651Z,98001.17
2018-06-19T09:01:38.170Z,97993.19
2018-06-19T09:04:12.383Z,97993.64
2018-06-19T09:06:46.416Z,98001.83
2018-06-19T09:09:23.714Z,97984.90
2018-06-19T09:11:57.866Z,97971.20
2018-06-19T09:14:33.238Z,97962.20
2018-06-19T09:17:06.794Z,97964.19
2018-06-19T09:19:40.540Z,97964.20
2018-06-19T09:22:13.922Z,97959.64
2018-06-19T09:24:46.747Z,97956.35
2018-06-19T09:27:19.755Z,97956.61
2018-06-19T09:29:53.915Z,97948.02
2018-06-19T09:32:26.458Z,97945.90
2018-06-19T09:34:59.110Z,97936.78
2018-06-19T09:37:31.838Z,97933.35
2018-06-19T09:40:05.690Z,97931.61
2018-06-19T09:42:38.457Z,97922.64
2018-06-19T09:45:10.709Z,97927.65
2018-06-19T09:47:43.946Z,97929.70
2018-06-19T09:50:16.786Z,97922.83
2018-06-19T09:52:49.480Z,97917.42
2018-06-19T09:55:22.360Z,97917.08
2018-06-19T09:57:55.331Z,97910.66
2018-06-19T10:00:36.177Z,97914.58
2018-06-19T10:03:11.209Z,97915.92
2018-06-19T10:05:44.303Z,97917.02
2018-06-19T10:08:17.657Z,97915.85
2018-06-19T10:10:50.162Z,97913.16
2018-06-19T10:13:22.993Z,97899.48
2018-06-19T10:15:56.063Z,97896.16
2018-06-19T10:18:28.362Z,97892.98
2018-06-19T10:21:00.987Z,97896.27
2018-06-19T10:23:33.601Z,97900.45
2018-06-19T10:26:07.139Z,97895.06
2018-06-19T10:28:39.671Z,97894.68
2018-06-19T10:31:12.507Z,97881.47
2018-06-19T10:33:45.742Z,97918.09
2018-06-19T10:36:18.328Z,97944.67
2018-06-19T10:38:50.515Z,97948.08
2018-06-19T10:41:23.687Z,97949.88
2018-06-19T10:43:56.121Z,97966.02
2018-06-19T10:46:28.651Z,97963.70
2018-06-19T10:49:02.402Z,97961.66
2018-06-19T10:51:34.967Z,97957.84
2018-06-19T10:54:07.917Z,97942.45
2018-06-19T10:56:43.806Z,97927.61
2018-06-19T10:59:16.945Z,97931.65
2018-06-19T11:01:49.726Z,97922.13
2018-06-19T11:04:22.869Z,97928.30
2018-06-19T11:06:55.289Z,97935.50
2018-06-19T11:09:29.006Z,97913.23
2018-06-19T11:12:01.980Z,97897.84
2018-06-19T11:14:33.931Z,97903.67
2018-06-19T11:17:06.984Z,97902.63
2018-06-19T11:19:38.927Z,97895.08
2018-06-19T11:22:11.046Z,97891.05
2018-06-19T11:24:43.676Z,97887.54
2018-06-19T11:27:16.708Z,97879.17
2018-06-19T11:29:49.490Z,97891.53
2018-06-19T11:32:22.487Z,97888.84
2018-06-19T11:34:55.731Z,97883.09
2018-06-19T11:37:28.210Z,97871.29
2018-06-19T11:40:00.815Z,97868.60
2018-06-19T11:42:33.178Z,97863.67
2018-06-19T11:45:06.012Z,97848.32
2018-06-19T11:47:38.322Z,97853.22
2018-06-19T11:50:10.897Z,97849.19
2018-06-19T11:52:43.603Z,97842.65
2018-06-19T11:55:16.514Z,97846.68
2018-06-19T11:57:49.623Z,97833.16
2018-06-19T12:00:22.584Z,97831.78
2018-06-19T12:02:55.986Z,97827.56
2018-06-19T12:05:28.576Z,97835.63
2018-06-19T12:08:02.666Z,97843.33
2018-06-19T12:10:36.254Z,97840.38
2018-06-19T12:13:09.011Z,97832.34
2018-06-19T12:15:42.972Z,97831.78
2018-06-19T12:18:15.685Z,97829.66
2018-06-19T12:20:48.246Z,97827.19
2018-06-19T12:23:21.032Z,97837.42
2018-06-19T12:25:53.990Z,97831.30
2018-06-19T12:28:26.612Z,97833.47
2018-06-19T12:30:59.862Z,97828.91
2018-06-19T12:33:32.919Z,97826.93
2018-06-19T12:36:06.391Z,97827.56
2018-06-19T12:38:39.467Z,97826.66
2018-06-19T12:41:12.523Z,97835.34
2018-06-19T12:43:45.395Z,97835.14
2018-06-19T12:46:17.947Z,97837.68
2018-06-19T12:48:51.014Z,97825.58
2018-06-19T12:52:00.000Z,97826.41
2018-06-19T12:54:49.952Z,97823.42
2018-06-19T12:57:23.104Z,97823.16
2018-06-19T12:59:55.091Z,97824.77
2018-06-19T13:02:27.857Z,97831.78
2018-06-19T13:05:09.506Z,97840.64
2018-06-19T13:07:45.126Z,97842.53
2018-06-19T13:10:18.176Z,97840.07
2018-06-19T13:13:29.407Z,97832.57
2018-06-19T13:16:03.783Z,97836.34
2018-06-19T13:18:45.576Z,97828.80
2018-06-19T13:21:18.151Z,97823.16
2018-06-19T13:23:52.010Z,97828.50
2018-06-19T13:26:24.355Z,97830.14
2018-06-19T13:30:05.348Z,97831.19
2018-06-19T13:32:38.512Z,97839.77
2018-06-19T13:35:11.370Z,97838.20
2018-06-19T13:37:43.429Z,97840.07
2018-06-19T13:41:26.681Z,97840.11
2018-06-19T13:44:14.710Z,97844.14
2018-06-19T13:46:48.067Z,97847.43
2018-06-19T13:49:19.807Z,97851.46
2018-06-19T13:51:52.676Z,97854.16
2018-06-19T13:54:25.250Z,97856.61
2018-06-19T13:57:16.512Z,97858.48
2018-06-19T13:59:48.828Z,97863.63
2018-06-19T14:02:22.006Z,97869.53
2018-06-19T14:04:55.253Z,97880.30
2018-06-19T14:07:28.690Z,97875.66
2018-06-19T14:10:10.545Z,97881.86
2018-06-19T14:13:04.339Z,97874.31
2018-06-19T14:15:39.290Z,97873.72
2018-06-19T14:18:13.197Z,97885.00
2018-06-19T14:20:46.315Z,97893.62
2018-06-19T14:23:19.649Z,97897.66
2018-06-19T14:25:52.041Z,97913.78
2018-06-19T14:28:24.527Z,97920.20
2018-06-19T14:30:56.829Z,97926.16
2018-06-19T14:33:30.340Z,97929.92
2018-06-19T14:36:02.261Z,97935.11
2018-06-19T14:38:35.467Z,97947.39
2018-06-19T14:41:08.327Z,97952.17
2018-06-19T14:43:40.680Z,97957.84
2018-06-19T14:46:13.731Z,97964.70
2018-06-19T14:48:47.048Z,97975.27
2018-06-19T14:51:19.073Z,97981.15
2018-06-19T14:53:51.726Z,97987.17
2018-06-19T14:56:24.232Z,97996.36
2018-06-19T14:58:56.945Z,98000.25
2018-06-19T15:01:28.841Z,98005.03
2018-06-19T15:04:02.131Z,98006.38
2018-06-19T15:06:34.838Z,98012.05
2018-06-19T15:09:10.080Z,98017.13
2018-06-19T15:11:43.340Z,98024.45
2018-06-19T15:14:16.285Z,98021.77
2018-06-19T15:16:48.543Z,98030.34
2018-06-19T15:19:21.150Z,98025.50
2018-06-19T15:21:54.242Z,98025.50
2018-06-19T15:24:27.041Z,98028.19
2018-06-19T15:27:00.541Z,98027.88
2018-06-19T15:29:33.753Z,98032.96
2018-06-19T15:32:06.677Z,98036.47
2018-06-19T15:34:39.769Z,98034.61
2018-06-19T15:37:11.632Z,98039.38
2018-06-19T15:39:44.818Z,98043.41
2018-06-19T15:42:17.240Z,98043.89
2018-06-19T15:44:50.319Z,98044.63
2018-06-19T15:47:23.212Z,98053.59
2018-06-19T15:49:56.261Z,98052.26
2018-06-19T15:52:28.337Z,98053.59
2018-06-19T15:55:01.060Z,98066.14
2018-06-19T15:57:33.313Z,98068.83
2018-06-19T16:00:05.856Z,98068.09
2018-06-19T16:02:38.472Z,98078.84
2018-06-19T16:05:11.896Z,98077.72
2018-06-19T16:07:48.616Z,98085.78
2018-06-19T16:10:21.411Z,98088.99
2018-06-19T16:12:53.700Z,98086.00
2018-06-19T16:15:26.674Z,98088.69
2018-06-19T16:18:00.496Z,98096.73
2018-06-19T16:20:32.921Z,98099.02
2018-06-19T16:23:05.663Z,98104.27
2018-06-19T16:25:37.890Z,98108.72
2018-06-19T16:28:11.059Z,98111.11
2018-06-19T16:30:44.147Z,98116.48
2018-06-19T16:33:16.823Z,98116.48
2018-06-19T16:35:50.251Z,98119.91
2018-06-19T16:38:23.305Z,98122.60
2018-06-19T16:40:56.926Z,98111.98
2018-06-19T16:43:29.523Z,98117.14
2018-06-19T16:46:01.941Z,98123.95
2018-06-19T16:48:34.180Z,98123.09
2018-06-19T16:51:06.995Z,98124.25
2018-06-19T16:53:42.015Z,98132.01
2018-06-19T16:56:16.383Z,98124.95
2018-06-19T16:58:49.293Z,98124.91
2018-06-19T17:01:22.149Z,98118.70
2018-06-19T17:03:55.789Z,98124.38
2018-06-19T17:06:28.753Z,98129.16
2018-06-19T17:09:01.483Z,98132.88
2018-06-19T17:11:34.824Z,98133.80
2018-06-19T17:14:07.136Z,98128.11
2018-06-19T17:16:40.937Z,98127.29
2018-06-19T17:19:13.803Z,98134.53
2018-06-19T17:21:46.690Z,98137.66
2018-06-19T17:24:19.825Z,98135.27
2018-06-19T17:26:52.757Z,98143.63
2018-06-19T17:29:25.086Z,98152.83
2018-06-19T17:31:58.225Z,98156.25
2018-06-19T17:34:31.435Z,98164.62
2018-06-19T17:37:04.239Z,98165.14
2018-06-19T17:39:36.535Z,98173.20
2018-06-19T17:42:09.232Z,98177.45
2018-06-19T17:44:41.321Z,98172.76
2018-06-19T17:47:13.937Z,98169.64
2018-06-19T17:49:46.368Z,98161.63
2018-06-19T17:52:19.184Z,98167.52
2018-06-19T17:54:52.475Z,98179.31
2018-06-19T17:57:25.872Z,98176.62
2018-06-19T17:59:58.539Z,98174.70
2018-06-19T18:02:31.363Z,98163.95
2018-06-19T18:05:03.277Z,98165.61
2018-06-19T18:07:35.760Z,98168.20
2018-06-19T18:10:08.180Z,98164.17
2018-06-19T18:12:42.750Z,98160.14
2018-06-19T18:15:14.840Z,98156.33
2018-06-19T18:17:50.242Z,98154.24
2018-06-19T18:20:23.759Z,98161.19
2018-06-19T18:22:57.482Z,98157.89
2018-06-19T18:25:30.048Z,98149.91
2018-06-19T18:28:02.423Z,98152.30
2018-06-19T18:30:34.692Z,98152.30
2018-06-19T18:33:08.092Z,98159.02
2018-06-19T18:35:40.636Z,98161.19
2018-06-19T18:38:13.551Z,98154.68
2018-06-19T18:40:46.238Z,98153.64
2018-06-19T18:43:19.185Z,98154.16
2018-06-19T18:45:51.418Z,98152.20
2018-06-19T18:48:24.647Z,98153.55
2018-06-19T18:50:57.119Z,98140.88
2018-06-19T18:53:30.410Z,98142.01
2018-06-19T18:56:02.651Z,98145.44
2018-06-19T18:58:35.591Z,98146.17
2018-06-19T19:01:08.408Z,98141.48
2018-06-19T19:03:40.809Z,98142.00
2018-06-19T19:06:13.380Z,98145.26
2018-06-19T19:08:45.825Z,98140.27
2018-06-19T19:11:18.303Z,98136.46
2018-06-19T19:13:51.302Z,98138.84
2018-06-19T19:16:28.109Z,98134.30
2018-06-19T19:19:01.857Z,98138.94
2018-06-19T19:21:34.994Z,98134.76
2018-06-19T19:24:07.706Z,98138.27
2018-06-19T19:26:44.819Z,98134.51
2018-06-19T19:29:22.126Z,98136.16
2018-06-19T19:31:55.383Z,98131.91
2018-06-19T19:34:27.174Z,98138.33
2018-06-19T19:37:04.356Z,98140.49
2018-06-19T19:39:37.142Z,98136.16
2018-06-19T19:42:09.653Z,98139.88
2018-06-19T19:44:42.728Z,98140.19
2018-06-19T19:47:18.973Z,98142.81
2018-06-19T19:49:51.431Z,98146.77
2018-06-19T19:52:24.155Z,98145.42
2018-06-19T19:54:57.316Z,98146.98
2018-06-19T19:57:34.770Z,98143.25
2018-06-19T20:00:08.122Z,98145.12
2018-06-19T20:02:41.099Z,98137.88
2018-06-19T20:05:14.636Z,98138.39
2018-06-19T20:07:47.419Z,98138.09
2018-06-19T20:10:19.358Z,98137.58
2018-06-19T20:12:52.552Z,98146.77
2018-06-19T20:15:25.963Z,98139.83
2018-06-19T20:17:58.524Z,98134.67
2018-06-19T20:20:32.027Z,98131.07
2018-06-19T20:23:04.792Z,98124.60
2018-06-19T20:25:37.167Z,98130.03
2018-06-19T20:28:09.985Z,98129.45
2018-06-19T20:30:42.936Z,98128.33
2018-06-19T20:33:15.965Z,98127.81
2018-06-19T20:35:49.130Z,98130.71
2018-06-19T20:38:22.411Z,98127.51
2018-06-19T20:40:55.532Z,98126.37
2018-06-19T20:43:27.854Z,98126.68
2018-06-19T20:46:00.376Z,98125.55
2018-06-19T20:48:32.833Z,98128.23
2018-06-19T20:51:05.460Z,98121.52
2018-06-19T20:53:38.501Z,98118.10
2018-06-19T20:56:11.111Z,98127.51
2018-06-19T20:58:43.343Z,98133.09
2018-06-19T21:01:16.087Z,98135.48
2018-06-19T21:03:48.080Z,98136.30
2018-06-19T21:06:20.573Z,98135.70
2018-06-19T21:08:52.996Z,98138.11
2018-06-19T21:11:25.409Z,98138.94
2018-06-19T21:13:57.873Z,98138.94
2018-06-19T21:16:30.545Z,98147.12
2018-06-19T21:19:03.615Z,98150.94
2018-06-19T21:21:36.940Z,98153.09
2018-06-19T21:24:10.023Z,98159.52
2018-06-19T21:26:43.346Z,98157.04
2018-06-19T21:29:16.434Z,98158.33
2018-06-19T21:31:48.629Z,98160.77
2018-06-19T21:34:21.330Z,98158.69
2018-06-19T21:36:54.050Z,98161.38
2018-06-19T21:39:26.017Z,98153.02
2018-06-19T21:41:58.698Z,98152.70
2018-06-19T21:44:30.670Z,98157.50
2018-06-19T21:47:03.835Z,98165.04
2018-06-19T21:49:36.570Z,98174.66
2018-06-19T21:52:09.570Z,98167.17
2018-06-19T21:54:42.760Z,98153.17
2018-06-19T21:57:15.953Z,98154.17
2018-06-19T21:59:49.127Z,98153.56
2018-06-19T22:02:26.959Z,98159.97
2018-06-19T22:04:59.496Z,98159.15
2018-06-19T22:07:32.811Z,98156.25
2018-06-19T22:10:05.923Z,98161.63
2018-06-19T22:12:38.763Z,98158.57
2018-06-19T22:15:10.824Z,98168.25
2018-06-19T22:17:44.073Z,98169.68
2018-06-19T22:20:17.512Z,98168.34
2018-06-19T22:22:51.379Z,98169.98
2018-06-19T22:25:23.292Z,98171.76
2018-06-19T22:27:55.699Z,98173.86
2018-06-19T22:30:28.366Z,98172.83
2018-06-19T22:33:01.954Z,98191.75
2018-06-19T22:35:34.232Z,98194.74
2018-06-19T22:38:07.382Z,98185.86
2018-06-19T22:40:40.344Z,98185.03
2018-06-19T22:43:13.095Z,98188.33
2018-06-19T22:45:46.254Z,98190.41
2018-06-19T22:48:19.415Z,98193.00
2018-06-19T22:50:52.385Z,98194.95
2018-06-19T22:53:25.508Z,98198.67
2018-06-19T22:55:58.264Z,98206.16
2018-06-19T22:58:30.729Z,98203.47
2018-06-19T23:01:03.756Z,98201.00
2018-06-19T23:03:36.176Z,98198.00
2018-06-19T23:06:09.155Z,98195.02
2018-06-19T23:08:41.418Z,98197.58
2018-06-19T23:11:13.623Z,98195.17
2018-06-19T23:13:46.234Z,98196.75
2018-06-19T23:16:19.317Z,98198.73
2018-06-19T23:18:52.142Z,98203.89
2018-06-19T23:21:24.386Z,98205.75
2018-06-19T23:23:57.097Z,98209.78
2018-06-19T23:26:29.314Z,98208.75
2018-06-19T23:29:02.892Z,98207.31
2018-06-19T23:31:35.647Z,98207.83
2018-06-19T23:34:08.718Z,98208.28
2018-06-19T23:36:42.657Z,98209.63
2018-06-19T23:39:15.855Z,98212.62
2018-06-19T23:41:48.174Z,98221.09
2018-06-19T23:44:20.844Z,98219.85
2018-06-19T23:46:53.445Z,98215.30
2018-06-19T23:49:25.994Z,98218.63
2018-06-19T23:51:59.649Z,98221.55
2018-06-19T23:54:32.534Z,98222.34
2018-06-19T23:57:04.699Z,98229.06
2018-06-19T23:59:37.507Z,98236.32
